createdAt,value
2019-03-08T00:01:59.542Z,6.14
2019-03-08T00:04:26.884Z,6.18
2019-03-08T00:06:54.241Z,6.22
2019-03-08T00:09:21.595Z,6.24
2019-03-08T00:11:48.968Z,6.33
2019-03-08T00:14:17.151Z,6.31
2019-03-08T00:16:44.375Z,6.35
2019-03-08T00:19:11.757Z,6.37
2019-03-08T00:21:43.838Z,6.28
2019-03-08T00:24:11.168Z,6.07
2019-03-08T00:26:38.270Z,5.86
2019-03-08T00:29:05.300Z,5.65
2019-03-08T00:31:32.525Z,5.44
2019-03-08T00:33:59.857Z,5.30
2019-03-08T00:36:27.056Z,5.22
2019-03-08T00:38:54.358Z,5.12
2019-03-08T00:41:21.472Z,5.01
2019-03-08T00:43:48.573Z,4.96
2019-03-08T00:46:21.839Z,4.94
2019-03-08T00:48:49.206Z,4.92
2019-03-08T00:51:16.254Z,4.86
2019-03-08T00:53:43.285Z,4.84
2019-03-08T00:56:10.658Z,4.87
2019-03-08T00:58:38.423Z,4.90
2019-03-08T01:01:05.539Z,4.92
2019-03-08T01:03:33.100Z,4.95
2019-03-08T01:06:00.144Z,5.01
2019-03-08T01:08:36.780Z,5.05
2019-03-08T01:11:04.084Z,5.11
2019-03-08T01:13:31.115Z,5.13
2019-03-08T01:15:58.512Z,5.05
2019-03-08T01:18:30.251Z,5.06
2019-03-08T01:20:57.625Z,5.13
2019-03-08T01:23:24.722Z,5.19
2019-03-08T01:25:51.765Z,5.09
2019-03-08T01:28:18.793Z,5.03
2019-03-08T01:30:46.138Z,5.03
2019-03-08T01:33:13.249Z,4.97
2019-03-08T01:35:40.291Z,4.85
2019-03-08T01:38:07.324Z,4.73
2019-03-08T01:40:34.377Z,4.69
2019-03-08T01:43:01.406Z,4.75
2019-03-08T01:45:39.719Z,4.86
2019-03-08T01:48:07.149Z,5.02
2019-03-08T01:50:34.488Z,5.22
2019-03-08T01:53:01.861Z,5.33
2019-03-08T01:55:29.202Z,5.41
2019-03-08T01:57:56.554Z,5.42
2019-03-08T02:00:23.584Z,5.50
2019-03-08T02:02:50.636Z,5.59
2019-03-08T02:05:17.851Z,5.63
2019-03-08T02:07:44.895Z,5.66
2019-03-08T02:10:12.218Z,5.67
2019-03-08T02:12:39.556Z,5.65
2019-03-08T02:15:06.589Z,5.61
2019-03-08T02:17:33.876Z,5.48
2019-03-08T02:20:00.909Z,5.32
2019-03-08T02:22:28.320Z,5.19
2019-03-08T02:24:55.632Z,5.06
2019-03-08T02:27:22.987Z,4.96
2019-03-08T02:29:50.025Z,4.87
2019-03-08T02:32:17.315Z,4.80
2019-03-08T02:34:44.350Z,4.75
2019-03-08T02:37:11.392Z,4.78
2019-03-08T02:39:38.737Z,4.79
2019-03-08T02:42:06.076Z,4.82
2019-03-08T02:44:33.105Z,4.91
2019-03-08T02:47:00.157Z,5.02
2019-03-08T02:49:27.530Z,5.06
2019-03-08T02:51:54.885Z,5.15
2019-03-08T02:54:22.460Z,5.03
2019-03-08T02:56:49.815Z,4.99
2019-03-08T02:59:16.853Z,4.88
2019-03-08T03:01:44.220Z,4.79
2019-03-08T03:04:11.556Z,4.80
2019-03-08T03:06:38.596Z,4.83
2019-03-08T03:09:05.960Z,5.04
2019-03-08T03:11:34.612Z,5.09
2019-03-08T03:14:02.022Z,5.08
2019-03-08T03:16:29.051Z,5.02
2019-03-08T03:18:56.099Z,4.94
2019-03-08T03:21:23.145Z,4.89
2019-03-08T03:23:50.195Z,4.90
2019-03-08T03:26:17.575Z,4.98
2019-03-08T03:28:44.903Z,5.13
2019-03-08T03:31:13.153Z,5.31
2019-03-08T03:33:40.455Z,5.35
2019-03-08T03:36:07.732Z,5.25
2019-03-08T03:38:35.041Z,5.10
2019-03-08T03:41:02.076Z,4.95
2019-03-08T03:43:29.296Z,4.79
2019-03-08T03:45:56.596Z,4.62
2019-03-08T03:48:23.721Z,4.49
2019-03-08T03:50:50.748Z,4.41
2019-03-08T03:53:18.148Z,4.27
2019-03-08T03:55:45.180Z,4.17
2019-03-08T03:58:12.223Z,4.08
2019-03-08T04:00:39.531Z,3.95
2019-03-08T04:03:06.852Z,3.87
2019-03-08T04:05:33.885Z,3.80
2019-03-08T04:08:00.932Z,3.78
2019-03-08T04:10:27.984Z,3.75
2019-03-08T04:12:55.368Z,3.72
2019-03-08T04:15:22.418Z,3.68
2019-03-08T04:17:49.450Z,3.65
2019-03-08T04:20:16.746Z,3.67
2019-03-08T04:22:44.084Z,3.65
2019-03-08T04:25:11.124Z,3.62
2019-03-08T04:27:38.476Z,3.60
2019-03-08T04:30:05.756Z,3.57
2019-03-08T04:32:33.048Z,3.58
2019-03-08T04:35:00.420Z,3.56
2019-03-08T04:37:27.451Z,3.54
2019-03-08T04:39:54.745Z,3.52
2019-03-08T04:42:21.848Z,3.49
2019-03-08T04:44:48.902Z,3.53
2019-03-08T04:47:19.180Z,3.52
2019-03-08T04:49:46.471Z,3.54
2019-03-08T04:52:13.359Z,3.54
2019-03-08T04:54:40.647Z,3.52
2019-03-08T04:57:07.963Z,3.49
2019-03-08T04:59:35.017Z,3.48
2019-03-08T05:02:02.052Z,3.46
2019-03-08T05:04:29.097Z,3.44
2019-03-08T05:06:56.204Z,3.44
2019-03-08T05:09:23.595Z,3.43
2019-03-08T05:11:50.969Z,3.44
2019-03-08T05:14:18.065Z,3.46
2019-03-08T05:16:45.104Z,3.47
2019-03-08T05:19:12.506Z,3.44
2019-03-08T05:21:39.876Z,3.43
2019-03-08T05:24:07.082Z,3.44
2019-03-08T05:26:34.468Z,3.38
2019-03-08T05:29:01.748Z,3.35
2019-03-08T05:31:29.092Z,3.38
2019-03-08T05:33:56.123Z,3.41
2019-03-08T05:36:24.917Z,3.40
2019-03-08T05:38:55.852Z,3.40
2019-03-08T05:41:23.227Z,3.42
2019-03-08T05:43:50.387Z,3.41
2019-03-08T05:46:17.711Z,3.41
2019-03-08T05:48:45.068Z,3.41
2019-03-08T05:51:12.446Z,3.39
2019-03-08T05:53:39.780Z,3.40
2019-03-08T05:56:07.000Z,3.38
2019-03-08T05:58:34.438Z,3.38
2019-03-08T06:01:01.448Z,3.40
2019-03-08T06:03:28.753Z,3.36
2019-03-08T06:05:56.146Z,3.33
2019-03-08T06:08:23.177Z,3.25
2019-03-08T06:10:50.564Z,3.21
2019-03-08T06:13:17.772Z,3.31
2019-03-08T06:15:45.153Z,3.40
2019-03-08T06:18:12.184Z,3.54
2019-03-08T06:20:39.231Z,3.64
2019-03-08T06:23:06.625Z,3.70
2019-03-08T06:25:34.007Z,3.79
2019-03-08T06:28:01.248Z,3.83
2019-03-08T06:30:28.515Z,3.87
2019-03-08T06:32:55.834Z,3.89
2019-03-08T06:35:23.193Z,3.88
2019-03-08T06:37:50.527Z,3.90
2019-03-08T06:40:17.583Z,3.88
2019-03-08T06:42:44.933Z,3.88
2019-03-08T06:45:12.303Z,3.95
2019-03-08T06:47:39.599Z,3.93
2019-03-08T06:50:06.929Z,3.93
2019-03-08T06:52:33.949Z,3.97
2019-03-08T06:55:01.305Z,4.03
2019-03-08T06:57:34.079Z,4.18
2019-03-08T07:00:01.436Z,4.46
2019-03-08T07:02:30.448Z,4.79
2019-03-08T07:04:57.904Z,5.16
2019-03-08T07:07:25.259Z,5.62
2019-03-08T07:09:52.624Z,6.01
2019-03-08T07:12:19.673Z,6.10
2019-03-08T07:14:47.026Z,6.15
2019-03-08T07:17:14.355Z,6.09
2019-03-08T07:19:41.717Z,6.43
2019-03-08T07:22:09.700Z,7.90
2019-03-08T07:24:36.732Z,8.39
2019-03-08T07:27:04.040Z,7.82
2019-03-08T07:29:31.336Z,7.00
2019-03-08T07:31:58.692Z,6.38
2019-03-08T07:34:45.307Z,6.02
2019-03-08T07:37:12.354Z,5.90
2019-03-08T07:39:39.387Z,5.57
2019-03-08T07:42:07.652Z,5.37
2019-03-08T07:44:35.437Z,5.57
2019-03-08T07:47:02.742Z,5.46
2019-03-08T07:49:29.774Z,5.26
2019-03-08T07:51:57.096Z,5.60
2019-03-08T07:54:24.129Z,7.90
2019-03-08T07:56:51.515Z,8.78
2019-03-08T07:59:18.851Z,9.67
2019-03-08T08:01:46.204Z,11.26
2019-03-08T08:04:13.615Z,11.48
2019-03-08T08:06:40.886Z,10.33
2019-03-08T08:09:08.272Z,9.27
2019-03-08T08:11:35.827Z,9.54
2019-03-08T08:14:02.890Z,10.00
2019-03-08T08:16:29.930Z,10.31
2019-03-08T08:18:57.280Z,10.70
2019-03-08T08:21:24.318Z,13.76
2019-03-08T08:23:51.709Z,16.55
2019-03-08T08:26:19.060Z,16.03
2019-03-08T08:28:49.968Z,16.95
2019-03-08T08:31:15.134Z,18.10
2019-03-08T08:33:42.538Z,17.24
2019-03-08T08:36:09.908Z,14.41
2019-03-08T08:38:37.306Z,11.63
2019-03-08T08:41:04.343Z,9.86
2019-03-08T08:43:31.394Z,9.20
2019-03-08T08:45:58.697Z,9.83
2019-03-08T08:48:26.078Z,12.72
2019-03-08T08:50:53.118Z,14.89
2019-03-08T08:53:20.418Z,14.57
2019-03-08T08:55:47.978Z,16.34
2019-03-08T08:58:15.373Z,15.22
2019-03-08T09:00:42.421Z,13.37
2019-03-08T09:03:09.779Z,12.45
2019-03-08T09:05:37.151Z,11.57
2019-03-08T09:08:04.485Z,10.85
2019-03-08T09:13:25.409Z,11.30
2019-03-08T09:15:52.785Z,11.69
2019-03-08T09:18:19.838Z,11.66
2019-03-08T09:20:47.184Z,11.55
2019-03-08T09:23:14.410Z,11.81
2019-03-08T09:25:41.777Z,11.68
2019-03-08T09:28:09.129Z,12.40
2019-03-08T09:30:36.485Z,12.42
2019-03-08T09:33:03.862Z,12.35
2019-03-08T09:35:31.537Z,12.77
2019-03-08T09:37:58.871Z,12.83
2019-03-08T09:40:25.926Z,13.30
2019-03-08T09:42:52.958Z,13.89
2019-03-08T09:45:20.004Z,16.73
2019-03-08T09:47:50.257Z,20.26
2019-03-08T09:50:17.316Z,22.97
2019-03-08T09:52:44.732Z,19.43
2019-03-08T09:55:12.062Z,20.33
2019-03-08T09:57:39.952Z,18.66
2019-03-08T10:00:07.533Z,17.29
2019-03-08T10:02:34.870Z,16.52
2019-03-08T10:05:02.226Z,17.11
2019-03-08T10:07:29.535Z,20.11
2019-03-08T10:09:56.951Z,24.32
2019-03-08T10:12:25.022Z,24.62
2019-03-08T10:14:52.359Z,23.28
2019-03-08T10:17:19.734Z,19.96
2019-03-08T10:19:47.069Z,22.24
2019-03-08T10:22:14.427Z,18.60
2019-03-08T10:24:41.478Z,15.50
2019-03-08T10:27:08.523Z,13.23
2019-03-08T10:29:35.568Z,13.22
2019-03-08T10:32:02.604Z,14.11
2019-03-08T10:34:29.969Z,12.45
2019-03-08T10:36:57.005Z,12.00
2019-03-08T10:39:24.050Z,10.92
2019-03-08T10:41:51.420Z,10.17
2019-03-08T10:44:18.533Z,15.79
2019-03-08T10:46:45.586Z,15.68
2019-03-08T10:49:12.616Z,20.62
2019-03-08T10:51:39.925Z,24.69
2019-03-08T10:54:07.277Z,22.44
2019-03-08T10:56:34.331Z,18.61
2019-03-08T10:59:01.371Z,16.60
2019-03-08T11:01:29.033Z,13.54
2019-03-08T11:03:56.408Z,11.69
2019-03-08T11:06:23.850Z,10.88
2019-03-08T11:08:50.960Z,10.91
2019-03-08T11:11:18.357Z,10.74
2019-03-08T11:13:45.712Z,11.50
2019-03-08T11:16:13.065Z,11.88
2019-03-08T11:18:40.273Z,12.02
2019-03-08T11:21:07.668Z,11.80
2019-03-08T11:23:35.023Z,11.27
2019-03-08T11:26:02.385Z,11.18
2019-03-08T11:28:29.416Z,11.46
2019-03-08T11:30:56.729Z,11.20
2019-03-08T11:33:24.040Z,11.02
2019-03-08T11:35:51.395Z,10.94
2019-03-08T11:38:18.750Z,10.71
2019-03-08T11:40:46.118Z,10.26
2019-03-08T11:43:13.400Z,9.90
2019-03-08T11:45:41.032Z,9.48
2019-03-08T11:48:08.063Z,9.24
2019-03-08T11:50:35.732Z,9.10
2019-03-08T11:53:02.780Z,8.97
2019-03-08T11:55:29.814Z,8.96
2019-03-08T11:57:57.195Z,9.11
2019-03-08T12:00:24.228Z,8.99
2019-03-08T12:02:51.581Z,8.96
2019-03-08T12:05:18.614Z,9.03
2019-03-08T12:07:47.337Z,9.03
2019-03-08T12:10:14.874Z,8.79
2019-03-08T12:12:41.920Z,8.76
2019-03-08T12:15:08.955Z,9.09
2019-03-08T12:17:36.346Z,9.13
2019-03-08T12:20:03.681Z,9.51
2019-03-08T12:22:31.257Z,9.85
2019-03-08T12:24:58.561Z,10.12
2019-03-08T12:27:25.614Z,10.15
2019-03-08T12:29:52.647Z,9.98
2019-03-08T12:32:21.069Z,9.95
2019-03-08T12:34:48.107Z,10.20
2019-03-08T12:37:15.473Z,10.74
2019-03-08T12:39:43.152Z,11.40
2019-03-08T12:42:10.207Z,11.28
2019-03-08T12:44:37.244Z,11.98
2019-03-08T12:47:04.586Z,13.48
2019-03-08T12:49:31.623Z,13.91
2019-03-08T12:51:58.681Z,13.38
2019-03-08T12:54:25.717Z,13.19
2019-03-08T12:56:52.766Z,13.18
2019-03-08T12:59:19.798Z,12.45
2019-03-08T13:01:47.182Z,12.57
2019-03-08T13:04:14.786Z,12.46
2019-03-08T13:06:42.097Z,12.46
2019-03-08T13:09:09.452Z,11.62
2019-03-08T13:11:37.015Z,10.71
2019-03-08T13:14:04.073Z,10.04
2019-03-08T13:16:31.113Z,10.33
2019-03-08T13:18:58.158Z,10.91
2019-03-08T13:21:25.193Z,11.42
2019-03-08T13:23:52.558Z,11.62
2019-03-08T13:26:19.589Z,11.15
2019-03-08T13:28:46.637Z,10.77
2019-03-08T13:31:14.009Z,10.10
2019-03-08T13:33:41.385Z,9.60
2019-03-08T13:36:08.721Z,9.26
2019-03-08T13:38:36.076Z,8.91
2019-03-08T13:41:03.447Z,8.77
2019-03-08T13:43:30.784Z,8.67
2019-03-08T13:45:58.140Z,8.63
2019-03-08T13:48:25.512Z,8.52
2019-03-08T13:50:52.847Z,8.36
2019-03-08T13:53:19.900Z,8.04
2019-03-08T13:55:47.252Z,7.51
2019-03-08T13:58:15.633Z,7.23
2019-03-08T14:00:44.319Z,6.87
2019-03-08T14:03:11.672Z,6.54
2019-03-08T14:05:38.705Z,6.35
2019-03-08T14:08:05.756Z,6.38
2019-03-08T14:10:33.126Z,6.74
2019-03-08T14:13:00.424Z,7.08
2019-03-08T14:15:27.749Z,7.44
2019-03-08T14:17:55.308Z,7.51
2019-03-08T14:20:22.665Z,7.56
2019-03-08T14:22:50.004Z,7.56
2019-03-08T14:25:17.376Z,7.60
2019-03-08T14:27:44.673Z,7.72
2019-03-08T14:30:11.721Z,7.85
2019-03-08T14:32:39.011Z,7.78
2019-03-08T14:35:06.369Z,7.62
2019-03-08T14:37:33.728Z,7.44
2019-03-08T14:40:00.850Z,7.17
2019-03-08T14:42:28.561Z,6.85
2019-03-08T14:44:55.610Z,6.97
2019-03-08T14:47:24.064Z,7.12
2019-03-08T14:49:55.342Z,7.23
2019-03-08T14:52:21.546Z,7.23
2019-03-08T14:54:49.109Z,7.14
2019-03-08T14:57:26.848Z,7.14
2019-03-08T14:59:44.880Z,7.28
2019-03-08T15:02:13.715Z,7.36
2019-03-08T15:04:40.933Z,7.41
2019-03-08T15:07:08.248Z,7.41
2019-03-08T15:09:35.766Z,7.53
2019-03-08T15:12:03.150Z,7.47
2019-03-08T15:14:33.511Z,7.49
2019-03-08T15:16:58.933Z,7.44
2019-03-08T15:19:26.355Z,7.51
2019-03-08T15:21:53.692Z,7.71
2019-03-08T15:24:21.047Z,8.01
2019-03-08T15:26:48.081Z,8.06
2019-03-08T15:29:15.128Z,8.00
2019-03-08T15:31:42.157Z,7.88
2019-03-08T15:34:09.753Z,7.48
2019-03-08T15:36:37.104Z,7.01
2019-03-08T15:39:04.157Z,6.69
2019-03-08T15:41:32.817Z,6.43
2019-03-08T15:43:59.867Z,6.24
2019-03-08T15:46:27.021Z,6.07
2019-03-08T15:48:54.939Z,5.94
2019-03-08T15:51:25.360Z,5.84
2019-03-08T15:53:51.375Z,5.82
2019-03-08T15:56:18.712Z,5.87
2019-03-08T15:58:46.069Z,6.02
2019-03-08T16:01:13.116Z,6.26
2019-03-08T16:03:40.330Z,6.45
2019-03-08T16:06:07.827Z,6.41
2019-03-08T16:08:35.895Z,6.40
2019-03-08T16:11:04.276Z,6.54
2019-03-08T16:13:31.648Z,6.63
2019-03-08T16:15:58.695Z,6.62
2019-03-08T16:18:25.728Z,6.68
2019-03-08T16:20:53.100Z,6.71
2019-03-08T16:23:21.149Z,6.77
2019-03-08T16:25:48.855Z,6.82
2019-03-08T16:28:16.294Z,6.95
2019-03-08T16:30:47.430Z,6.99
2019-03-08T16:33:12.480Z,6.91
2019-03-08T16:35:39.877Z,6.87
2019-03-08T16:38:06.910Z,6.83
2019-03-08T16:40:34.277Z,6.74
2019-03-08T16:43:03.764Z,6.54
2019-03-08T16:45:30.069Z,6.28
2019-03-08T16:47:57.100Z,6.01
2019-03-08T16:50:25.991Z,5.81
2019-03-08T16:53:00.493Z,5.65
2019-03-08T16:55:33.621Z,5.51
2019-03-08T16:58:03.109Z,5.38
2019-03-08T17:00:31.302Z,5.43
2019-03-08T17:02:58.539Z,5.58
2019-03-08T17:05:26.036Z,5.71
2019-03-08T17:08:03.473Z,5.65
2019-03-08T17:10:30.812Z,5.53
2019-03-08T17:12:58.087Z,5.33
2019-03-08T17:15:29.670Z,5.12
2019-03-08T17:17:58.225Z,4.92
2019-03-08T17:20:25.387Z,4.73
2019-03-08T17:22:53.863Z,4.59
2019-03-08T17:25:24.812Z,4.40
2019-03-08T17:27:52.153Z,4.28
2019-03-08T17:30:20.616Z,4.21
2019-03-08T17:32:47.674Z,4.14
2019-03-08T17:35:14.969Z,4.05
2019-03-08T17:37:42.892Z,3.93
2019-03-08T17:40:09.927Z,3.86
2019-03-08T17:42:36.982Z,3.81
2019-03-08T17:45:04.322Z,3.76
2019-03-08T17:47:31.702Z,3.68
2019-03-08T17:49:58.724Z,3.62
2019-03-08T17:52:26.082Z,3.58
2019-03-08T17:54:53.381Z,3.50
2019-03-08T17:57:20.634Z,3.42
2019-03-08T17:59:47.733Z,3.40
2019-03-08T18:02:15.193Z,3.33
2019-03-08T18:04:42.565Z,3.29
2019-03-08T18:07:09.617Z,3.27
2019-03-08T18:09:36.949Z,3.25
2019-03-08T18:12:03.996Z,3.27
2019-03-08T18:14:43.848Z,3.26
2019-03-08T18:17:10.901Z,3.27
2019-03-08T18:19:37.932Z,3.26
2019-03-08T18:22:05.297Z,3.16
2019-03-08T18:24:32.439Z,3.11
2019-03-08T18:26:59.483Z,3.02
2019-03-08T18:29:26.853Z,3.02
2019-03-08T18:31:54.872Z,3.03
2019-03-08T18:34:22.179Z,3.02
2019-03-08T18:36:49.277Z,3.06
2019-03-08T18:39:16.358Z,3.11
2019-03-08T18:41:49.129Z,3.26
2019-03-08T18:44:25.644Z,3.52
2019-03-08T18:46:54.030Z,3.82
2019-03-08T18:49:25.730Z,4.04
2019-03-08T18:51:54.139Z,4.15
2019-03-08T18:54:23.372Z,4.13
2019-03-08T18:56:50.952Z,4.17
2019-03-08T18:59:18.183Z,4.12
2019-03-08T19:04:25.369Z,4.25
2019-03-08T19:09:32.150Z,4.79
2019-03-08T19:12:00.649Z,4.94
2019-03-08T19:14:40.138Z,5.08
2019-03-08T19:19:54.436Z,5.30
2019-03-08T19:27:48.968Z,5.37
2019-03-08T19:30:23.032Z,5.24
2019-03-08T19:32:50.383Z,5.07
2019-03-08T19:35:17.929Z,5.01
2019-03-08T19:40:28.489Z,4.80
2019-03-08T19:42:55.676Z,4.78
2019-03-08T19:45:26.872Z,4.77
2019-03-08T19:47:54.439Z,4.67
2019-03-08T19:58:34.583Z,4.37
2019-03-08T20:01:08.680Z,4.34
2019-03-08T20:03:39.699Z,4.35
2019-03-08T20:06:06.783Z,4.33
2019-03-08T20:08:34.045Z,4.48
2019-03-08T20:11:11.764Z,4.55
2019-03-08T20:13:38.887Z,4.58
2019-03-08T20:16:06.442Z,4.47
2019-03-08T20:18:33.967Z,4.42
2019-03-08T20:21:01.732Z,4.49
2019-03-08T20:23:33.999Z,4.61
2019-03-08T20:26:02.201Z,4.69
2019-03-08T20:28:34.138Z,4.69
2019-03-08T20:31:14.627Z,4.60
2019-03-08T20:33:42.356Z,4.53
2019-03-08T20:36:09.645Z,4.68
2019-03-08T20:38:36.857Z,4.63
2019-03-08T20:49:09.624Z,4.50
2019-03-08T20:51:46.718Z,4.55
2019-03-08T20:56:50.412Z,4.54
2019-03-08T20:59:19.223Z,4.54
2019-03-08T21:01:50.561Z,4.60
2019-03-08T21:04:17.895Z,4.74
2019-03-08T21:06:45.320Z,4.88
2019-03-08T21:09:12.563Z,5.00
2019-03-08T21:11:41.018Z,5.06
2019-03-08T21:14:08.064Z,5.06
2019-03-08T21:16:43.519Z,5.16
2019-03-08T21:19:14.776Z,5.17
2019-03-08T21:21:43.179Z,5.16
2019-03-08T21:24:10.471Z,5.09
2019-03-08T21:26:45.758Z,4.87
2019-03-08T21:29:17.375Z,4.76
2019-03-08T21:37:11.265Z,4.82
2019-03-08T21:39:38.729Z,4.98
2019-03-08T21:42:06.141Z,5.06
2019-03-08T21:44:33.879Z,5.09
2019-03-08T21:47:00.954Z,5.07
2019-03-08T21:49:28.477Z,5.15
2019-03-08T21:51:55.870Z,5.16
2019-03-08T21:54:22.979Z,5.10
2019-03-08T21:56:50.981Z,4.98
2019-03-08T21:59:18.625Z,4.86
2019-03-08T22:01:46.081Z,4.77
2019-03-08T22:04:13.115Z,4.89
2019-03-08T22:06:40.473Z,4.99
2019-03-08T22:09:07.504Z,4.95
2019-03-08T22:11:36.528Z,4.93
2019-03-08T22:14:03.969Z,5.04
2019-03-08T22:16:31.348Z,5.02
2019-03-08T22:18:58.356Z,4.93
2019-03-08T22:21:25.411Z,4.94
2019-03-08T22:23:52.761Z,4.93
2019-03-08T22:26:20.117Z,4.88
2019-03-08T22:28:47.791Z,4.83
2019-03-08T22:31:15.148Z,4.85
2019-03-08T22:33:42.451Z,4.81
2019-03-08T22:36:09.581Z,4.71
2019-03-08T22:38:36.992Z,4.53
2019-03-08T22:41:04.347Z,4.37
2019-03-08T22:43:32.628Z,4.30
2019-03-08T22:45:59.672Z,4.23
2019-03-08T22:48:26.704Z,4.23
2019-03-08T22:50:53.758Z,4.15
2019-03-08T22:53:21.120Z,4.12
2019-03-08T22:55:49.399Z,4.10
2019-03-08T22:58:16.713Z,4.12
2019-03-08T23:00:44.112Z,4.11
2019-03-08T23:03:13.107Z,4.19
2019-03-08T23:05:40.493Z,4.06
2019-03-08T23:08:07.811Z,3.91
2019-03-08T23:10:35.103Z,3.82
2019-03-08T23:13:02.413Z,3.72
2019-03-08T23:15:29.456Z,3.54
2019-03-08T23:17:56.492Z,3.53
2019-03-08T23:20:23.871Z,3.53
2019-03-08T23:22:51.248Z,3.57
2019-03-08T23:25:19.535Z,3.48
2019-03-08T23:27:47.010Z,3.36
2019-03-08T23:30:14.317Z,3.45
2019-03-08T23:32:41.673Z,3.62
2019-03-08T23:35:09.042Z,3.73
2019-03-08T23:37:36.380Z,3.86
2019-03-08T23:40:03.660Z,3.97
2019-03-08T23:42:31.008Z,3.94
2019-03-08T23:44:58.043Z,3.91
2019-03-08T23:47:26.434Z,4.06
2019-03-08T23:49:53.792Z,4.10
2019-03-08T23:52:20.839Z,4.09
2019-03-08T23:54:48.114Z,4.02
2019-03-08T23:57:15.532Z,4.10
2019-03-08T23:59:42.565Z,4.17
